sensor_id;sensor_type;location;lat;lon;timestamp;temperature;humidity
11379;DHT22;5744;59.392;16.748;2023-03-09T19:12:16;-2.00;99.90
11379;DHT22;5744;59.392;16.748;2023-03-09T19:14:49;-2.00;99.90
11379;DHT22;5744;59.392;16.748;2023-03-09T19:17:17;-2.00;99.90
11379;DHT22;5744;59.392;16.748;2023-03-09T19:19:47;-2.00;99.90
11379;DHT22;5744;59.392;16.748;2023-03-09T19:22:17;-2.00;99.90
11379;DHT22;5744;59.392;16.748;2023-03-09T19:24:46;-1.90;99.90
11379;DHT22;5744;59.392;16.748;2023-03-09T19:27:17;-2.00;99.90
11379;DHT22;5744;59.392;16.748;2023-03-09T19:29:46;-2.00;99.90
11379;DHT22;5744;59.392;16.748;2023-03-09T19:32:15;-2.00;99.90
11379;DHT22;5744;59.392;16.748;2023-03-09T19:34:43;-1.90;99.90
11379;DHT22;5744;59.392;16.748;2023-03-09T19:37:12;-2.10;99.90
11379;DHT22;5744;59.392;16.748;2023-03-09T19:39:41;-2.00;99.90
11379;DHT22;5744;59.392;16.748;2023-03-09T19:42:09;-2.10;99.90
11379;DHT22;5744;59.392;16.748;2023-03-09T19:44:41;-2.10;99.90
11379;DHT22;5744;59.392;16.748;2023-03-09T19:47:10;-2.10;99.90
11379;DHT22;5744;59.392;16.748;2023-03-09T19:49:38;-2.10;99.90
11379;DHT22;5744;59.392;16.748;2023-03-09T19:52:07;-2.10;99.90
11379;DHT22;5744;59.392;16.748;2023-03-09T19:54:36;-2.30;99.90
11379;DHT22;5744;59.392;16.748;2023-03-09T19:57:06;-2.40;99.90
11379;DHT22;5744;59.392;16.748;2023-03-09T19:59:35;-2.50;99.90
11379;DHT22;5744;59.392;16.748;2023-03-09T20:02:08;-2.60;99.90
11379;DHT22;5744;59.392;16.748;2023-03-09T20:04:36;-2.70;99.90
11379;DHT22;5744;59.392;16.748;2023-03-09T20:07:05;-2.70;99.90
11379;DHT22;5744;59.392;16.748;2023-03-09T20:09:33;-2.80;99.90
11379;DHT22;5744;59.392;16.748;2023-03-09T20:12:02;-2.90;99.90
11379;DHT22;5744;59.392;16.748;2023-03-09T20:14:31;-3.00;99.90
11379;DHT22;5744;59.392;16.748;2023-03-09T20:17:00;-3.10;99.90
11379;DHT22;5744;59.392;16.748;2023-03-09T20:19:31;-3.20;99.90
11379;DHT22;5744;59.392;16.748;2023-03-09T20:22:00;-3.30;99.90
11379;DHT22;5744;59.392;16.748;2023-03-09T20:24:32;-3.30;99.90
11379;DHT22;5744;59.392;16.748;2023-03-09T20:27:01;-3.40;99.90
11379;DHT22;5744;59.392;16.748;2023-03-09T20:29:29;-3.40;99.90
11379;DHT22;5744;59.392;16.748;2023-03-09T20:31:58;-3.50;99.90
11379;DHT22;5744;59.392;16.748;2023-03-09T20:34:30;-3.50;99.90
11379;DHT22;5744;59.392;16.748;2023-03-09T20:36:59;-3.60;99.90
11379;DHT22;5744;59.392;16.748;2023-03-09T20:39:28;-3.60;99.90
11379;DHT22;5744;59.392;16.748;2023-03-09T20:41:56;-3.70;99.90
11379;DHT22;5744;59.392;16.748;2023-03-09T20:44:25;-3.70;99.90
11379;DHT22;5744;59.392;16.748;2023-03-09T20:46:54;-3.80;99.90
11379;DHT22;5744;59.392;16.748;2023-03-09T20:49:22;-3.90;99.90
11379;DHT22;5744;59.392;16.748;2023-03-09T20:51:55;-3.90;99.90
11379;DHT22;5744;59.392;16.748;2023-03-09T20:54:24;-4.10;99.90
11379;DHT22;5744;59.392;16.748;2023-03-09T20:56:52;-4.10;99.90
11379;DHT22;5744;59.392;16.748;2023-03-09T20:59:23;-4.10;99.90
11379;DHT22;5744;59.392;16.748;2023-03-09T21:01:52;-4.20;99.90
11379;DHT22;5744;59.392;16.748;2023-03-09T21:04:21;-4.10;99.90
11379;DHT22;5744;59.392;16.748;2023-03-09T21:06:49;-4.10;99.90
11379;DHT22;5744;59.392;16.748;2023-03-09T21:09:21;-4.10;99.90
11379;DHT22;5744;59.392;16.748;2023-03-09T21:11:50;-4.30;99.90
11379;DHT22;5744;59.392;16.748;2023-03-09T21:14:18;-4.30;99.90
11379;DHT22;5744;59.392;16.748;2023-03-09T21:16:48;-4.30;99.90
11379;DHT22;5744;59.392;16.748;2023-03-09T21:19:16;-4.40;99.90
11379;DHT22;5744;59.392;16.748;2023-03-09T21:21:45;-4.50;99.90
11379;DHT22;5744;59.392;16.748;2023-03-09T21:24:13;-4.50;99.90
11379;DHT22;5744;59.392;16.748;2023-03-09T21:26:45;-4.60;99.90
11379;DHT22;5744;59.392;16.748;2023-03-09T21:29:14;-4.70;99.90
11379;DHT22;5744;59.392;16.748;2023-03-09T21:31:42;-4.70;99.90
11379;DHT22;5744;59.392;16.748;2023-03-09T21:34:11;-4.70;99.90
11379;DHT22;5744;59.392;16.748;2023-03-09T21:36:39;-4.80;99.90
11379;DHT22;5744;59.392;16.748;2023-03-09T21:39:08;-4.90;99.90
11379;DHT22;5744;59.392;16.748;2023-03-09T21:41:36;-4.90;99.90
11379;DHT22;5744;59.392;16.748;2023-03-09T21:44:07;-5.00;99.90
11379;DHT22;5744;59.392;16.748;2023-03-09T21:46:36;-5.00;99.90
11379;DHT22;5744;59.392;16.748;2023-03-09T21:49:05;-5.20;99.90
11379;DHT22;5744;59.392;16.748;2023-03-09T21:51:33;-5.30;99.90
11379;DHT22;5744;59.392;16.748;2023-03-09T21:54:02;-5.40;99.90
11379;DHT22;5744;59.392;16.748;2023-03-09T21:56:31;-5.50;99.90
11379;DHT22;5744;59.392;16.748;2023-03-09T21:58:59;-5.60;99.90
11379;DHT22;5744;59.392;16.748;2023-03-09T22:01:33;-5.60;99.90
11379;DHT22;5744;59.392;16.748;2023-03-09T22:04:02;-5.70;99.90
11379;DHT22;5744;59.392;16.748;2023-03-09T22:06:31;-5.90;99.90
11379;DHT22;5744;59.392;16.748;2023-03-09T22:09:00;-6.00;99.90
11379;DHT22;5744;59.392;16.748;2023-03-09T22:11:31;-6.00;99.90
11379;DHT22;5744;59.392;16.748;2023-03-09T22:14:00;-6.00;99.90
11379;DHT22;5744;59.392;16.748;2023-03-09T22:16:31;-6.00;99.90
11379;DHT22;5744;59.392;16.748;2023-03-09T22:19:03;-5.90;99.90
11379;DHT22;5744;59.392;16.748;2023-03-09T22:21:34;-5.90;99.90
11379;DHT22;5744;59.392;16.748;2023-03-09T22:24:03;-5.90;99.90
11379;DHT22;5744;59.392;16.748;2023-03-09T22:26:32;-5.90;99.90
11379;DHT22;5744;59.392;16.748;2023-03-09T22:29:02;-5.90;99.90
11379;DHT22;5744;59.392;16.748;2023-03-09T22:31:30;-5.80;99.90
11379;DHT22;5744;59.392;16.748;2023-03-09T22:33:59;-5.80;99.90
11379;DHT22;5744;59.392;16.748;2023-03-09T22:36:31;-5.70;99.90
11379;DHT22;5744;59.392;16.748;2023-03-09T22:39:00;-5.60;99.90
11379;DHT22;5744;59.392;16.748;2023-03-09T22:41:30;-5.70;99.90
11379;DHT22;5744;59.392;16.748;2023-03-09T22:43:58;-5.70;99.90
11379;DHT22;5744;59.392;16.748;2023-03-09T22:46:28;-5.80;99.90
11379;DHT22;5744;59.392;16.748;2023-03-09T22:48:56;-5.80;99.90
11379;DHT22;5744;59.392;16.748;2023-03-09T22:51:25;-6.00;99.90
11379;DHT22;5744;59.392;16.748;2023-03-09T22:53:57;-6.00;99.90
11379;DHT22;5744;59.392;16.748;2023-03-09T22:56:26;-6.10;99.90
11379;DHT22;5744;59.392;16.748;2023-03-09T22:58:55;-6.20;99.90
11379;DHT22;5744;59.392;16.748;2023-03-09T23:01:24;-6.40;99.90
11379;DHT22;5744;59.392;16.748;2023-03-09T23:03:53;-6.50;99.90
11379;DHT22;5744;59.392;16.748;2023-03-09T23:06:22;-6.70;99.90
11379;DHT22;5744;59.392;16.748;2023-03-09T23:08:51;-6.90;99.90
11379;DHT22;5744;59.392;16.748;2023-03-09T23:11:23;-7.00;99.90
11379;DHT22;5744;59.392;16.748;2023-03-09T23:13:52;-7.00;99.90
11379;DHT22;5744;59.392;16.748;2023-03-09T23:16:21;-6.90;99.90
11379;DHT22;5744;59.392;16.748;2023-03-09T23:18:49;-7.00;99.90
11379;DHT22;5744;59.392;16.748;2023-03-09T23:21:18;-7.10;99.90
11379;DHT22;5744;59.392;16.748;2023-03-09T23:23:47;-7.20;99.90
11379;DHT22;5744;59.392;16.748;2023-03-09T23:26:16;-7.20;99.90
11379;DHT22;5744;59.392;16.748;2023-03-09T23:28:47;-7.20;99.90
11379;DHT22;5744;59.392;16.748;2023-03-09T23:31:16;-7.10;99.90
11379;DHT22;5744;59.392;16.748;2023-03-09T23:33:45;-7.10;99.90
11379;DHT22;5744;59.392;16.748;2023-03-09T23:36:13;-7.10;99.90
11379;DHT22;5744;59.392;16.748;2023-03-09T23:38:42;-7.20;99.90
11379;DHT22;5744;59.392;16.748;2023-03-09T23:41:11;-7.20;99.90
11379;DHT22;5744;59.392;16.748;2023-03-09T23:43:40;-7.30;99.90
11379;DHT22;5744;59.392;16.748;2023-03-09T23:46:12;-7.30;99.90
11379;DHT22;5744;59.392;16.748;2023-03-09T23:48:41;-7.60;99.90
11379;DHT22;5744;59.392;16.748;2023-03-09T23:51:10;-7.70;99.90
11379;DHT22;5744;59.392;16.748;2023-03-09T23:53:39;-7.90;99.90
11379;DHT22;5744;59.392;16.748;2023-03-09T23:56:08;-8.00;99.90
11379;DHT22;5744;59.392;16.748;2023-03-09T23:58:38;-8.00;99.90
